Time;durP1;ratioP1;P1;durP2;ratioP2;P2;SDS_P1;SDS_P2;PMS_P1;PMS_P2;Temp;Humidity;BMP_temperature;BMP_pressure;BME280_temperature;BME280_humidity;BME280_pressure;Samples;Min_cycle;Max_cycle;Signal;HPM_P1;HPM_P2
2021/01/22 00:01:59;;;;;;;4.43;3.43;;;;;;;;;;5003327;28;20458;-69
2021/01/22 00:04:26;;;;;;;5.37;3.80;;;;;;;;;;4998986;28;20478;-69
2021/01/22 00:06:53;;;;;;;6.23;4.47;;;;;;;;;;4992431;28;20458;-68
2021/01/22 00:09:20;;;;;;;5.47;4.50;;;;;;;;;;5001682;28;20454;-68
2021/01/22 00:11:47;;;;;;;5.03;4.13;;;;;;;;;;5008091;28;20450;-67
2021/01/22 00:14:14;;;;;;;5.10;4.53;;;;;;;;;;4992595;28;20474;-68
2021/01/22 00:16:41;;;;;;;6.10;4.37;;;;;;;;;;4996564;28;20449;-68
2021/01/22 00:19:08;;;;;;;5.57;4.47;;;;;;;;;;4992483;28;20468;-67
2021/01/22 00:21:34;;;;;;;5.93;4.97;;;;;;;;;;4994417;28;20458;-69
2021/01/22 00:24:01;;;;;;;5.57;4.20;;;;;;;;;;5002749;28;20474;-67
2021/01/22 00:26:27;;;;;;;5.50;5.00;;;;;;;;;;4995914;28;20458;-67
2021/01/22 00:28:55;;;;;;;5.70;5.10;;;;;;;;;;4995413;28;20497;-68
2021/01/22 00:31:22;;;;;;;6.57;5.60;;;;;;;;;;4995385;28;20979;-68
2021/01/22 00:33:48;;;;;;;5.60;5.10;;;;;;;;;;4992348;28;21228;-68
2021/01/22 00:36:15;;;;;;;5.90;5.43;;;;;;;;;;4992533;28;20450;-68
2021/01/22 00:38:41;;;;;;;7.53;5.67;;;;;;;;;;4999382;28;20508;-68
2021/01/22 00:41:08;;;;;;;5.97;5.37;;;;;;;;;;4996065;28;20459;-68
2021/01/22 00:43:35;;;;;;;6.77;5.97;;;;;;;;;;5004870;28;20470;-69
2021/01/22 00:46:02;;;;;;;6.37;5.73;;;;;;;;;;5022056;28;20450;-68
2021/01/22 00:48:29;;;;;;;9.00;6.90;;;;;;;;;;5017838;28;20454;-69
2021/01/22 00:50:55;;;;;;;10.10;6.07;;;;;;;;;;4995783;28;20996;-68
2021/01/22 00:53:22;;;;;;;6.83;6.33;;;;;;;;;;5011737;28;20485;-68
2021/01/22 00:55:49;;;;;;;6.63;5.93;;;;;;;;;;4996477;28;20458;-69
2021/01/22 00:58:15;;;;;;;6.37;5.87;;;;;;;;;;5007637;28;20464;-68
2021/01/22 01:00:42;;;;;;;6.37;5.77;;;;;;;;;;5011034;28;20450;-68
2021/01/22 01:03:10;;;;;;;6.90;6.30;;;;;;;;;;4994998;28;20485;-68
2021/01/22 01:05:36;;;;;;;7.10;6.40;;;;;;;;;;5004979;28;20450;-68
2021/01/22 01:08:03;;;;;;;11.57;6.23;;;;;;;;;;4994632;28;20967;-68
2021/01/22 01:10:29;;;;;;;8.07;6.60;;;;;;;;;;5009497;28;20524;-68
2021/01/22 01:12:56;;;;;;;7.43;6.70;;;;;;;;;;5014408;28;20996;-68
2021/01/22 01:15:23;;;;;;;7.63;6.50;;;;;;;;;;4995440;28;20447;-68
2021/01/22 01:17:49;;;;;;;6.03;5.50;;;;;;;;;;4995403;28;20451;-68
2021/01/22 01:20:17;;;;;;;6.17;5.73;;;;;;;;;;5007779;28;20957;-68
2021/01/22 01:22:43;;;;;;;5.70;5.40;;;;;;;;;;5005689;28;20926;-67
2021/01/22 01:25:11;;;;;;;9.67;5.27;;;;;;;;;;5006595;28;20450;-68
2021/01/22 01:27:37;;;;;;;8.10;5.03;;;;;;;;;;4994822;28;20495;-67
2021/01/22 01:30:04;;;;;;;5.30;4.90;;;;;;;;;;4994560;28;20451;-68
2021/01/22 01:32:31;;;;;;;5.23;4.83;;;;;;;;;;5011942;28;20481;-68
2021/01/22 01:34:57;;;;;;;3.97;3.60;;;;;;;;;;5000866;28;20454;-67
2021/01/22 01:37:25;;;;;;;5.03;3.40;;;;;;;;;;4994455;28;20885;-68
2021/01/22 01:39:51;;;;;;;4.20;3.87;;;;;;;;;;4995551;28;20465;-67
2021/01/22 01:42:18;;;;;;;4.23;3.70;;;;;;;;;;4994152;28;20473;-69
2021/01/22 01:44:45;;;;;;;3.70;3.40;;;;;;;;;;5001172;28;20478;-68
2021/01/22 01:47:11;;;;;;;3.57;3.30;;;;;;;;;;4994784;28;20513;-68
2021/01/22 01:49:38;;;;;;;4.40;3.40;;;;;;;;;;4994392;28;20458;-68
2021/01/22 01:52:04;;;;;;;3.90;3.60;;;;;;;;;;4994167;28;20450;-68
2021/01/22 01:54:32;;;;;;;3.77;3.47;;;;;;;;;;5003305;28;20520;-67
2021/01/22 01:56:59;;;;;;;4.00;3.70;;;;;;;;;;5012362;28;20446;-68
2021/01/22 01:59:26;;;;;;;4.10;3.53;;;;;;;;;;5011078;28;20450;-68
2021/01/22 02:01:53;;;;;;;3.97;3.60;;;;;;;;;;5003840;28;20461;-68
2021/01/22 02:04:20;;;;;;;4.10;3.80;;;;;;;;;;5000260;28;20556;-68
2021/01/22 02:06:46;;;;;;;3.60;3.30;;;;;;;;;;4998615;28;20459;-69
2021/01/22 02:09:13;;;;;;;5.40;3.73;;;;;;;;;;4993512;28;20946;-68
2021/01/22 02:11:41;;;;;;;4.00;3.57;;;;;;;;;;5003679;28;20457;-67
2021/01/22 02:14:07;;;;;;;3.30;3.00;;;;;;;;;;5003676;28;20494;-68
2021/01/22 02:16:34;;;;;;;3.50;3.10;;;;;;;;;;4993196;28;20458;-68
2021/01/22 02:19:02;;;;;;;3.77;3.50;;;;;;;;;;5001101;28;20460;-69
2021/01/22 02:21:30;;;;;;;4.07;3.20;;;;;;;;;;5013382;28;20496;-68
2021/01/22 02:24:00;;;;;;;3.30;3.10;;;;;;;;;;5006393;28;20521;-68
2021/01/22 02:26:51;;;;;;;3.30;2.93;;;;;;;;;;5010892;28;20453;-68
2021/01/22 02:29:17;;;;;;;3.73;3.43;;;;;;;;;;5006560;28;20450;-69
2021/01/22 02:31:45;;;;;;;3.10;2.90;;;;;;;;;;4993399;28;20451;-68
2021/01/22 02:34:13;;;;;;;3.47;3.20;;;;;;;;;;5000418;28;20481;-69
2021/01/22 02:36:41;;;;;;;3.53;3.33;;;;;;;;;;4994396;28;20481;-69
2021/01/22 02:39:09;;;;;;;3.07;2.87;;;;;;;;;;4994023;28;20458;-68
2021/01/22 02:41:37;;;;;;;3.13;2.90;;;;;;;;;;4994627;28;20848;-68
2021/01/22 02:44:05;;;;;;;3.77;3.30;;;;;;;;;;4993701;28;20474;-69
2021/01/22 02:46:32;;;;;;;3.50;3.30;;;;;;;;;;4997038;28;20473;-68
2021/01/22 02:48:59;;;;;;;3.07;2.80;;;;;;;;;;5003281;28;20501;-68
2021/01/22 02:51:25;;;;;;;4.50;3.27;;;;;;;;;;5003121;28;20992;-67
2021/01/22 02:53:52;;;;;;;2.87;2.67;;;;;;;;;;5012698;28;20500;-67
2021/01/22 02:56:24;;;;;;;2.90;2.70;;;;;;;;;;5001785;28;20451;-67
2021/01/22 02:58:54;;;;;;;3.30;2.80;;;;;;;;;;4999558;28;20450;-67
2021/01/22 03:01:24;;;;;;;3.47;3.17;;;;;;;;;;5012518;28;20453;-67
2021/01/22 03:03:54;;;;;;;2.70;2.60;;;;;;;;;;5009336;28;20477;-67
2021/01/22 03:06:22;;;;;;;3.00;2.80;;;;;;;;;;5012226;28;20461;-67
2021/01/22 03:08:51;;;;;;;2.80;2.60;;;;;;;;;;5005453;28;20458;-67
2021/01/22 03:11:18;;;;;;;2.90;2.70;;;;;;;;;;4992991;28;20458;-67
2021/01/22 03:13:46;;;;;;;3.27;3.03;;;;;;;;;;4992523;28;20998;-67
2021/01/22 03:16:13;;;;;;;3.87;2.93;;;;;;;;;;5000985;28;20449;-67
2021/01/22 03:18:40;;;;;;;3.10;2.90;;;;;;;;;;4996573;28;20954;-67
2021/01/22 03:21:10;;;;;;;3.10;2.80;;;;;;;;;;5000381;28;20447;-67
2021/01/22 03:23:36;;;;;;;3.00;2.80;;;;;;;;;;4992587;28;20471;-67
2021/01/22 03:26:03;;;;;;;3.00;2.80;;;;;;;;;;5001804;28;20492;-67
2021/01/22 03:28:29;;;;;;;2.90;2.70;;;;;;;;;;5006634;28;20454;-67
2021/01/22 03:30:56;;;;;;;2.83;2.63;;;;;;;;;;4992496;28;20459;-67
2021/01/22 03:33:22;;;;;;;3.00;2.60;;;;;;;;;;5004316;28;20895;-67
2021/01/22 03:35:50;;;;;;;2.47;2.37;;;;;;;;;;4991946;28;20459;-67
2021/01/22 03:38:16;;;;;;;3.10;2.67;;;;;;;;;;4997228;28;20454;-67
2021/01/22 03:40:43;;;;;;;2.70;2.47;;;;;;;;;;4992744;28;20461;-67
2021/01/22 03:43:10;;;;;;;2.30;2.20;;;;;;;;;;4993045;28;20890;-68
2021/01/22 03:45:36;;;;;;;2.60;2.40;;;;;;;;;;4992770;28;20457;-67
2021/01/22 03:48:03;;;;;;;2.50;2.30;;;;;;;;;;4991607;28;20465;-67
2021/01/22 03:50:29;;;;;;;2.47;2.27;;;;;;;;;;4992197;28;20450;-67
2021/01/22 03:52:57;;;;;;;2.50;2.30;;;;;;;;;;4992992;28;21017;-67
2021/01/22 03:55:23;;;;;;;2.70;2.50;;;;;;;;;;5011707;28;20454;-68
2021/01/22 03:57:50;;;;;;;2.60;2.50;;;;;;;;;;4998372;28;20954;-68
2021/01/22 04:00:17;;;;;;;2.90;2.30;;;;;;;;;;5006726;28;20450;-68
2021/01/22 04:02:44;;;;;;;4.50;3.13;;;;;;;;;;4996082;28;20482;-68
2021/01/22 04:05:12;;;;;;;3.30;3.10;;;;;;;;;;5013102;28;20449;-68
2021/01/22 04:07:38;;;;;;;3.27;3.07;;;;;;;;;;5016011;28;20450;-68
2021/01/22 04:10:07;;;;;;;3.73;3.43;;;;;;;;;;4997775;28;20466;-68
2021/01/22 04:12:35;;;;;;;3.50;3.20;;;;;;;;;;5010752;28;20512;-69
2021/01/22 04:15:02;;;;;;;4.70;3.03;;;;;;;;;;5008616;28;20446;-70
2021/01/22 04:17:28;;;;;;;3.50;3.10;;;;;;;;;;5012263;28;20504;-68
2021/01/22 04:19:55;;;;;;;5.50;3.07;;;;;;;;;;4998516;28;20456;-68
2021/01/22 04:22:21;;;;;;;3.37;3.07;;;;;;;;;;4996331;28;20809;-68
2021/01/22 04:24:48;;;;;;;4.40;3.03;;;;;;;;;;4995581;28;20501;-68
2021/01/22 04:27:15;;;;;;;2.70;2.60;;;;;;;;;;4995673;28;20458;-68
2021/01/22 04:29:42;;;;;;;2.80;2.50;;;;;;;;;;5015197;28;20453;-68
2021/01/22 04:32:08;;;;;;;2.30;2.17;;;;;;;;;;5015400;28;20512;-67
2021/01/22 04:34:35;;;;;;;2.20;2.10;;;;;;;;;;5000294;28;21000;-67
2021/01/22 04:37:02;;;;;;;2.30;2.10;;;;;;;;;;4995932;28;20456;-67
2021/01/22 04:39:28;;;;;;;2.20;2.10;;;;;;;;;;4995525;28;20820;-68
2021/01/22 04:41:56;;;;;;;2.30;2.13;;;;;;;;;;4995093;28;20508;-67
2021/01/22 04:44:24;;;;;;;2.50;2.30;;;;;;;;;;4995512;28;20473;-68
2021/01/22 04:46:51;;;;;;;2.40;2.10;;;;;;;;;;5008924;28;20450;-68
2021/01/22 04:49:18;;;;;;;3.20;3.00;;;;;;;;;;4995071;28;20942;-68
2021/01/22 04:51:46;;;;;;;4.13;3.93;;;;;;;;;;5008195;28;20453;-68
2021/01/22 04:54:14;;;;;;;4.90;4.50;;;;;;;;;;5014399;28;20493;-68
2021/01/22 04:56:43;;;;;;;5.27;4.97;;;;;;;;;;5002998;28;20513;-67
2021/01/22 04:59:13;;;;;;;5.70;5.30;;;;;;;;;;4994902;28;20442;-67
2021/01/22 05:01:41;;;;;;;5.70;5.00;;;;;;;;;;5005351;28;20949;-67
2021/01/22 05:04:08;;;;;;;5.63;5.23;;;;;;;;;;4994890;28;20482;-67
2021/01/22 05:06:35;;;;;;;6.40;5.97;;;;;;;;;;5005741;28;20461;-67
2021/01/22 05:09:01;;;;;;;6.10;5.60;;;;;;;;;;5013774;28;20449;-67
2021/01/22 05:11:28;;;;;;;6.20;5.70;;;;;;;;;;5010065;28;20456;-67
2021/01/22 05:13:54;;;;;;;5.40;5.00;;;;;;;;;;5014425;28;20520;-67
2021/01/22 05:16:23;;;;;;;3.97;3.70;;;;;;;;;;5035267;23;20524;-67
2021/01/22 05:18:51;;;;;;;3.70;3.50;;;;;;;;;;5014846;28;21030;-67
2021/01/22 05:21:19;;;;;;;4.13;3.87;;;;;;;;;;5014426;28;20453;-67
2021/01/22 05:23:46;;;;;;;3.90;3.70;;;;;;;;;;5020001;28;20464;-66
2021/01/22 05:26:13;;;;;;;3.50;3.30;;;;;;;;;;5017314;28;20466;-67
2021/01/22 05:28:41;;;;;;;3.60;3.40;;;;;;;;;;5024798;28;20449;-67
2021/01/22 05:31:08;;;;;;;3.57;3.37;;;;;;;;;;5014373;28;20446;-67
2021/01/22 05:33:34;;;;;;;3.57;3.37;;;;;;;;;;5030251;28;20480;-67
2021/01/22 05:36:21;;;;;;;3.60;3.40;;;;;;;;;;5020204;28;20473;-67
2021/01/22 05:38:47;;;;;;;3.50;3.30;;;;;;;;;;5021172;28;20441;-67
2021/01/22 05:41:14;;;;;;;3.37;3.17;;;;;;;;;;5018798;28;20961;-67
2021/01/22 05:43:40;;;;;;;2.73;2.63;;;;;;;;;;5016652;28;20456;-67
2021/01/22 05:46:12;;;;;;;2.67;2.57;;;;;;;;;;5033157;28;20468;-66
2021/01/22 05:48:39;;;;;;;3.33;3.03;;;;;;;;;;5031123;28;20457;-67
2021/01/22 05:51:05;;;;;;;3.60;3.30;;;;;;;;;;5016591;28;20445;-66
2021/01/22 05:53:33;;;;;;;3.40;3.20;;;;;;;;;;5033534;28;20485;-68
2021/01/22 05:56:07;;;;;;;3.30;3.10;;;;;;;;;;5032423;28;20468;-67
2021/01/22 05:58:33;;;;;;;3.53;3.33;;;;;;;;;;5013730;28;20457;-67
2021/01/22 06:01:04;;;;;;;4.03;3.73;;;;;;;;;;5013802;28;20453;-69
2021/01/22 06:03:31;;;;;;;4.90;4.50;;;;;;;;;;5033176;28;20449;-67
2021/01/22 06:05:57;;;;;;;5.70;5.30;;;;;;;;;;5019897;28;20481;-67
2021/01/22 06:08:24;;;;;;;5.13;4.63;;;;;;;;;;5013580;28;20488;-67
2021/01/22 06:10:52;;;;;;;5.53;5.23;;;;;;;;;;5013618;28;20465;-67
2021/01/22 06:13:24;;;;;;;5.70;5.30;;;;;;;;;;5014345;28;20531;-67
2021/01/22 06:15:51;;;;;;;5.83;5.33;;;;;;;;;;5032455;28;20476;-68
2021/01/22 06:18:20;;;;;;;5.20;4.90;;;;;;;;;;5000979;28;20459;-67
2021/01/22 06:20:48;;;;;;;5.20;4.80;;;;;;;;;;5017182;28;20457;-67
2021/01/22 06:23:15;;;;;;;6.07;5.67;;;;;;;;;;5030560;28;20449;-66
2021/01/22 06:25:44;;;;;;;6.30;5.90;;;;;;;;;;5030426;28;20472;-67
2021/01/22 06:28:12;;;;;;;6.63;5.07;;;;;;;;;;5013229;28;20454;-67
2021/01/22 06:30:40;;;;;;;5.70;5.30;;;;;;;;;;5013488;28;20453;-66
2021/01/22 06:33:07;;;;;;;5.37;5.00;;;;;;;;;;5032667;28;20579;-66
2021/01/22 06:35:35;;;;;;;5.00;4.60;;;;;;;;;;5019871;28;21026;-67
2021/01/22 06:38:02;;;;;;;6.10;5.70;;;;;;;;;;5023232;28;20453;-67
2021/01/22 06:40:29;;;;;;;6.00;5.60;;;;;;;;;;5031619;28;20526;-67
2021/01/22 06:42:56;;;;;;;6.60;6.00;;;;;;;;;;5007712;28;20844;-68
2021/01/22 06:45:25;;;;;;;5.83;5.43;;;;;;;;;;4993081;28;20478;-67
2021/01/22 06:48:01;;;;;;;5.70;5.30;;;;;;;;;;5023745;28;20956;-68
2021/01/22 06:50:28;;;;;;;6.50;5.90;;;;;;;;;;5023351;28;20541;-68
2021/01/22 06:53:04;;;;;;;6.23;5.63;;;;;;;;;;5023243;28;20999;-67
2021/01/22 06:55:30;;;;;;;6.70;6.20;;;;;;;;;;5023507;28;20882;-67
2021/01/22 06:58:12;;;;;;;6.73;6.20;;;;;;;;;;5012872;28;20446;-67
2021/01/22 07:00:39;;;;;;;6.73;6.27;;;;;;;;;;5013230;28;20476;-66
2021/01/22 07:03:06;;;;;;;6.33;5.90;;;;;;;;;;5012615;28;20461;-67
2021/01/22 07:05:35;;;;;;;7.07;6.47;;;;;;;;;;5000935;28;20470;-67
2021/01/22 07:08:02;;;;;;;6.47;5.97;;;;;;;;;;4992648;28;20461;-67
2021/01/22 07:10:47;;;;;;;7.37;6.73;;;;;;;;;;4993671;28;20497;-66
2021/01/22 07:13:29;;;;;;;6.07;3.23;;;;;;;;;;4993745;28;21008;-68
2021/01/22 07:16:01;;;;;;;4.70;3.20;;;;;;;;;;5002560;28;20493;-69
2021/01/22 07:18:28;;;;;;;3.27;2.33;;;;;;;;;;5012050;28;20500;-69
2021/01/22 07:21:09;;;;;;;8.90;2.43;;;;;;;;;;5017905;28;20452;-68
2021/01/22 07:23:36;;;;;;;3.17;2.60;;;;;;;;;;5023273;28;20445;-69
2021/01/22 07:26:04;;;;;;;4.10;3.80;;;;;;;;;;5032425;28;20464;-68
2021/01/22 07:28:30;;;;;;;3.70;3.40;;;;;;;;;;5021611;28;20457;-68
2021/01/22 07:30:57;;;;;;;3.57;3.27;;;;;;;;;;5017046;28;20982;-67
2021/01/22 07:33:37;;;;;;;3.10;2.80;;;;;;;;;;5031200;28;20480;-67
2021/01/22 07:36:05;;;;;;;3.47;2.43;;;;;;;;;;5018785;28;20471;-67
2021/01/22 07:38:33;;;;;;;2.33;2.13;;;;;;;;;;5012287;28;20445;-67
2021/01/22 07:41:00;;;;;;;2.40;2.20;;;;;;;;;;5013305;28;20493;-67
2021/01/22 07:43:27;;;;;;;1.87;1.73;;;;;;;;;;5018602;28;20535;-67
2021/01/22 07:46:03;;;;;;;1.57;1.47;;;;;;;;;;5027170;28;20529;-67
2021/01/22 07:48:30;;;;;;;2.83;2.57;;;;;;;;;;5022586;28;20448;-67
2021/01/22 07:50:57;;;;;;;3.57;2.30;;;;;;;;;;5029628;28;20456;-69
2021/01/22 07:53:24;;;;;;;2.57;2.37;;;;;;;;;;5018446;28;20477;-68
2021/01/22 07:55:54;;;;;;;3.97;2.70;;;;;;;;;;5012166;28;20465;-69
2021/01/22 07:58:20;;;;;;;1.63;1.53;;;;;;;;;;5022226;28;20457;-67
2021/01/22 08:00:47;;;;;;;3.70;3.40;;;;;;;;;;5004705;28;20461;-68
2021/01/22 08:03:14;;;;;;;2.60;2.17;;;;;;;;;;5013499;28;20466;-67
2021/01/22 08:05:41;;;;;;;8.80;3.93;;;;;;;;;;5001034;28;20519;-67
2021/01/22 08:08:18;;;;;;;2.50;1.90;;;;;;;;;;4993010;28;20443;-68
2021/01/22 08:10:45;;;;;;;2.20;1.83;;;;;;;;;;5025706;28;20452;-70
2021/01/22 08:13:12;;;;;;;2.10;1.77;;;;;;;;;;5030856;28;20852;-68
2021/01/22 08:15:38;;;;;;;3.13;2.17;;;;;;;;;;5022907;28;20521;-68
2021/01/22 08:18:06;;;;;;;3.87;3.03;;;;;;;;;;5023499;28;20471;-69
2021/01/22 08:20:33;;;;;;;2.00;1.80;;;;;;;;;;5000407;28;20449;-68
2021/01/22 08:23:00;;;;;;;2.67;2.47;;;;;;;;;;5014202;28;20477;-68
2021/01/22 08:25:31;;;;;;;3.20;2.40;;;;;;;;;;5007523;28;20881;-68
2021/01/22 08:27:58;;;;;;;4.30;2.60;;;;;;;;;;4994111;28;20450;-68
2021/01/22 08:30:25;;;;;;;4.50;2.57;;;;;;;;;;5029386;28;20816;-68
2021/01/22 08:32:53;;;;;;;2.17;1.97;;;;;;;;;;5030723;28;20487;-68
2021/01/22 08:35:20;;;;;;;2.20;2.00;;;;;;;;;;5021395;28;20508;-67
2021/01/22 08:37:46;;;;;;;2.90;2.10;;;;;;;;;;5012558;28;20453;-68
2021/01/22 08:40:14;;;;;;;6.60;6.00;;;;;;;;;;5029097;28;20449;-66
2021/01/22 08:42:41;;;;;;;10.53;9.53;;;;;;;;;;5018638;28;20457;-68
2021/01/22 08:45:08;;;;;;;11.73;10.73;;;;;;;;;;5004205;28;20455;-68
2021/01/22 08:47:41;;;;;;;10.57;9.67;;;;;;;;;;5014526;28;20822;-70
2021/01/22 08:50:08;;;;;;;10.87;9.97;;;;;;;;;;5015121;28;20470;-67
2021/01/22 08:52:35;;;;;;;12.03;10.83;;;;;;;;;;5019874;28;20452;-67
2021/01/22 08:55:01;;;;;;;11.07;10.17;;;;;;;;;;5033875;28;20453;-67
2021/01/22 08:57:29;;;;;;;12.07;11.07;;;;;;;;;;5021583;28;20454;-68
2021/01/22 08:59:57;;;;;;;12.60;11.50;;;;;;;;;;5014619;28;20461;-68
2021/01/22 09:02:41;;;;;;;13.00;11.80;;;;;;;;;;5027077;28;20462;-67
2021/01/22 09:05:09;;;;;;;11.83;10.83;;;;;;;;;;5014303;28;20467;-65
2021/01/22 09:07:36;;;;;;;12.50;11.33;;;;;;;;;;5023182;28;20456;-70
2021/01/22 09:10:03;;;;;;;13.80;12.60;;;;;;;;;;5034472;28;20441;-67
2021/01/22 09:12:31;;;;;;;11.87;10.63;;;;;;;;;;5026751;28;20453;-66
2021/01/22 09:15:00;;;;;;;13.03;11.67;;;;;;;;;;5014788;28;20437;-66
2021/01/22 09:17:28;;;;;;;13.50;12.27;;;;;;;;;;5015632;28;20971;-67
2021/01/22 09:19:58;;;;;;;12.83;11.57;;;;;;;;;;5031323;28;20455;-66
2021/01/22 09:22:25;;;;;;;13.00;11.90;;;;;;;;;;5034083;28;20452;-66
2021/01/22 09:24:51;;;;;;;12.77;11.63;;;;;;;;;;5034333;28;20440;-63
2021/01/22 09:27:18;;;;;;;13.37;11.97;;;;;;;;;;5016637;28;20460;-63
2021/01/22 09:29:44;;;;;;;12.47;11.47;;;;;;;;;;5013899;28;20450;-63
2021/01/22 09:32:12;;;;;;;12.50;11.40;;;;;;;;;;5027773;28;20508;-63
2021/01/22 09:34:38;;;;;;;12.73;11.53;;;;;;;;;;5006961;28;20482;-67
2021/01/22 09:37:05;;;;;;;12.93;11.83;;;;;;;;;;5010144;28;20477;-67
2021/01/22 09:39:32;;;;;;;12.40;11.30;;;;;;;;;;5013491;28;20457;-67
2021/01/22 09:41:58;;;;;;;12.13;11.00;;;;;;;;;;5009702;28;20454;-66
2021/01/22 09:44:25;;;;;;;12.13;11.10;;;;;;;;;;4996881;28;20463;-68
2021/01/22 09:46:52;;;;;;;18.93;11.30;;;;;;;;;;5003949;28;20492;-66
2021/01/22 09:49:19;;;;;;;12.80;11.80;;;;;;;;;;5013346;28;20445;-66
2021/01/22 09:51:48;;;;;;;12.17;11.17;;;;;;;;;;5001657;28;20470;-64
2021/01/22 09:54:15;;;;;;;10.87;9.83;;;;;;;;;;5002890;28;20579;-64
2021/01/22 09:56:42;;;;;;;10.60;9.60;;;;;;;;;;5023914;28;20485;-64
2021/01/22 09:59:10;;;;;;;10.33;9.50;;;;;;;;;;5015654;28;20473;-64
2021/01/22 10:01:37;;;;;;;10.70;9.57;;;;;;;;;;5000920;28;20465;-67
2021/01/22 10:04:04;;;;;;;10.50;9.70;;;;;;;;;;5020020;28;20454;-64
2021/01/22 10:06:32;;;;;;;10.83;9.93;;;;;;;;;;5028845;28;20987;-66
2021/01/22 10:08:59;;;;;;;10.63;9.53;;;;;;;;;;5014633;28;20451;-67
2021/01/22 10:11:25;;;;;;;11.23;10.20;;;;;;;;;;5033672;28;20446;-66
2021/01/22 10:13:56;;;;;;;11.97;10.77;;;;;;;;;;5012592;28;20474;-67
2021/01/22 10:16:23;;;;;;;10.77;9.97;;;;;;;;;;4998717;28;20489;-67
2021/01/22 10:18:50;;;;;;;11.40;10.20;;;;;;;;;;4994155;28;20446;-66
2021/01/22 10:21:18;;;;;;;12.57;11.57;;;;;;;;;;4997286;28;20462;-66
2021/01/22 10:23:46;;;;;;;12.03;11.00;;;;;;;;;;4994110;28;20443;-67
2021/01/22 10:26:13;;;;;;;12.67;11.57;;;;;;;;;;4993635;28;21086;-66
2021/01/22 10:28:40;;;;;;;12.53;11.53;;;;;;;;;;5000770;28;20999;-66
2021/01/22 10:31:06;;;;;;;12.83;11.63;;;;;;;;;;4993915;28;20468;-67
2021/01/22 10:33:33;;;;;;;13.80;12.50;;;;;;;;;;5002544;28;20481;-66
2021/01/22 10:36:00;;;;;;;12.50;11.20;;;;;;;;;;5009810;28;20489;-65
2021/01/22 10:38:27;;;;;;;12.70;11.60;;;;;;;;;;5000461;28;20461;-66
2021/01/22 10:40:54;;;;;;;12.50;11.40;;;;;;;;;;4997071;28;20461;-65
2021/01/22 10:43:21;;;;;;;12.60;11.60;;;;;;;;;;5001525;28;20871;-66
2021/01/22 10:45:48;;;;;;;13.00;12.00;;;;;;;;;;5007848;28;20477;-67
2021/01/22 10:48:15;;;;;;;12.27;11.17;;;;;;;;;;5010941;28;20461;-66
2021/01/22 10:50:41;;;;;;;12.53;11.33;;;;;;;;;;5008409;28;20465;-66
2021/01/22 10:53:08;;;;;;;11.60;10.60;;;;;;;;;;5003216;28;20485;-66
2021/01/22 10:55:34;;;;;;;11.67;10.73;;;;;;;;;;5011687;28;20466;-66
2021/01/22 10:58:02;;;;;;;14.70;11.43;;;;;;;;;;5009592;28;20552;-67
2021/01/22 11:00:28;;;;;;;12.80;11.60;;;;;;;;;;5016884;28;20831;-66
2021/01/22 11:02:55;;;;;;;13.53;12.27;;;;;;;;;;5008529;28;20449;-67
2021/01/22 11:05:22;;;;;;;11.70;10.70;;;;;;;;;;5031771;28;20882;-66
2021/01/22 11:07:48;;;;;;;12.43;11.20;;;;;;;;;;5022958;28;20457;-66
2021/01/22 11:10:15;;;;;;;12.33;11.20;;;;;;;;;;5023620;28;20532;-66
2021/01/22 11:12:42;;;;;;;12.93;11.13;;;;;;;;;;5014738;28;20461;-65
2021/01/22 11:15:10;;;;;;;11.43;10.43;;;;;;;;;;5012025;28;20485;-66
2021/01/22 11:17:36;;;;;;;11.80;10.70;;;;;;;;;;5012316;28;20463;-66
2021/01/22 11:20:04;;;;;;;11.77;10.77;;;;;;;;;;5033622;23;20520;-65
2021/01/22 11:22:30;;;;;;;11.23;10.20;;;;;;;;;;5008268;28;20479;-66
2021/01/22 11:24:57;;;;;;;11.77;10.70;;;;;;;;;;5018795;28;20442;-67
2021/01/22 11:27:23;;;;;;;11.83;10.60;;;;;;;;;;5019660;28;20965;-66
2021/01/22 11:29:50;;;;;;;11.70;10.60;;;;;;;;;;5005273;28;20471;-66
2021/01/22 11:32:18;;;;;;;10.47;9.57;;;;;;;;;;4991805;28;20451;-66
2021/01/22 11:34:44;;;;;;;9.80;8.90;;;;;;;;;;4992081;28;20997;-66
2021/01/22 11:37:11;;;;;;;10.03;9.20;;;;;;;;;;4992159;28;20459;-66
2021/01/22 11:39:38;;;;;;;10.43;9.53;;;;;;;;;;4991782;28;21020;-65
2021/01/22 11:42:05;;;;;;;9.77;8.83;;;;;;;;;;4986506;28;20452;-68
2021/01/22 11:44:31;;;;;;;10.33;9.33;;;;;;;;;;4992610;28;20450;-66
2021/01/22 11:46:58;;;;;;;9.73;8.73;;;;;;;;;;4994490;28;20973;-69
2021/01/22 11:49:26;;;;;;;10.17;9.00;;;;;;;;;;4990785;28;20466;-68
2021/01/22 11:51:53;;;;;;;6.27;5.63;;;;;;;;;;4984900;28;20473;-68
2021/01/22 11:54:20;;;;;;;9.27;8.57;;;;;;;;;;4991949;28;20839;-68
2021/01/22 11:56:47;;;;;;;9.53;8.53;;;;;;;;;;5002526;28;20796;-67
2021/01/22 11:59:13;;;;;;;8.57;7.87;;;;;;;;;;5010812;28;20477;-67
2021/01/22 12:01:40;;;;;;;9.80;8.90;;;;;;;;;;4979642;28;20454;-67
2021/01/22 12:04:07;;;;;;;12.30;9.20;;;;;;;;;;4992039;28;20468;-68
2021/01/22 12:06:34;;;;;;;8.83;8.10;;;;;;;;;;4992239;28;20458;-67
2021/01/22 12:09:01;;;;;;;9.63;7.93;;;;;;;;;;4991720;28;20454;-70
2021/01/22 12:11:28;;;;;;;9.03;8.20;;;;;;;;;;4991409;28;20451;-68
2021/01/22 12:13:55;;;;;;;9.47;8.47;;;;;;;;;;4991827;28;20478;-69
2021/01/22 12:16:21;;;;;;;9.80;8.83;;;;;;;;;;4989219;28;20469;-70
2021/01/22 12:18:48;;;;;;;9.80;8.90;;;;;;;;;;4992879;28;20455;-70
2021/01/22 12:21:15;;;;;;;9.47;8.47;;;;;;;;;;4994501;28;20454;-70
2021/01/22 12:23:42;;;;;;;9.87;7.80;;;;;;;;;;4992641;28;20957;-70
2021/01/22 12:26:09;;;;;;;8.67;7.70;;;;;;;;;;4993833;28;20447;-70
2021/01/22 12:28:36;;;;;;;7.70;6.50;;;;;;;;;;5004272;28;20445;-70
2021/01/22 12:31:02;;;;;;;9.30;6.77;;;;;;;;;;5015267;28;20469;-70
2021/01/22 12:33:29;;;;;;;7.90;6.93;;;;;;;;;;5006230;28;20484;-69
2021/01/22 12:35:56;;;;;;;8.20;7.40;;;;;;;;;;4992186;28;20446;-70
2021/01/22 12:38:22;;;;;;;8.13;7.33;;;;;;;;;;4994563;28;20463;-70
2021/01/22 12:40:50;;;;;;;6.60;5.70;;;;;;;;;;4995655;28;21026;-70
2021/01/22 12:43:16;;;;;;;7.03;6.33;;;;;;;;;;4995574;28;20447;-70
2021/01/22 12:45:43;;;;;;;5.17;3.40;;;;;;;;;;4995928;28;20458;-70
2021/01/22 12:48:10;;;;;;;5.60;4.80;;;;;;;;;;4994924;28;20458;-70
2021/01/22 12:50:37;;;;;;;5.60;2.93;;;;;;;;;;4995675;28;20471;-73
2021/01/22 12:53:04;;;;;;;4.43;4.03;;;;;;;;;;4995248;28;20500;-73
2021/01/22 12:55:31;;;;;;;7.90;6.10;;;;;;;;;;4995664;28;20508;-71
2021/01/22 12:57:58;;;;;;;7.83;5.83;;;;;;;;;;4996320;28;20450;-71
2021/01/22 13:00:25;;;;;;;7.47;6.77;;;;;;;;;;4995207;28;21001;-70
2021/01/22 13:02:51;;;;;;;9.40;6.33;;;;;;;;;;4995546;28;20450;-70
2021/01/22 13:05:18;;;;;;;7.80;5.23;;;;;;;;;;4994862;28;20451;-69
2021/01/22 13:07:45;;;;;;;7.63;6.83;;;;;;;;;;4996149;28;20451;-70
2021/01/22 13:10:13;;;;;;;4.47;4.07;;;;;;;;;;4993333;28;20471;-72
2021/01/22 13:12:40;;;;;;;7.10;6.40;;;;;;;;;;4975748;28;20469;-72
2021/01/22 13:15:08;;;;;;;8.00;6.03;;;;;;;;;;4992608;28;20486;-68
2021/01/22 13:17:35;;;;;;;10.70;6.90;;;;;;;;;;4997814;28;20472;-68
2021/01/22 13:20:02;;;;;;;8.53;6.83;;;;;;;;;;4994628;28;20483;-71
2021/01/22 13:22:28;;;;;;;7.00;5.90;;;;;;;;;;4994432;28;20585;-70
2021/01/22 13:24:55;;;;;;;7.20;6.20;;;;;;;;;;4994989;28;20457;-70
2021/01/22 13:27:21;;;;;;;6.47;5.87;;;;;;;;;;4994641;28;20817;-73
2021/01/22 13:29:48;;;;;;;9.40;7.40;;;;;;;;;;4997668;28;21104;-72
2021/01/22 13:32:15;;;;;;;7.77;7.07;;;;;;;;;;4994693;28;20454;-70
2021/01/22 13:34:42;;;;;;;7.47;6.80;;;;;;;;;;4994654;28;20482;-71
2021/01/22 13:37:09;;;;;;;8.27;7.37;;;;;;;;;;4993675;28;20446;-69
2021/01/22 13:39:35;;;;;;;8.03;7.20;;;;;;;;;;4992983;28;20480;-71
2021/01/22 13:42:02;;;;;;;9.87;7.87;;;;;;;;;;4978157;28;20804;-70
2021/01/22 13:44:28;;;;;;;9.83;7.90;;;;;;;;;;4975024;28;20451;-71
2021/01/22 13:46:55;;;;;;;8.30;7.40;;;;;;;;;;4994192;28;20862;-69
2021/01/22 13:49:22;;;;;;;10.17;8.07;;;;;;;;;;4993414;28;20474;-71
2021/01/22 13:51:49;;;;;;;9.70;8.70;;;;;;;;;;4996803;28;20984;-68
2021/01/22 13:54:16;;;;;;;9.23;8.43;;;;;;;;;;4985575;28;20479;-70
2021/01/22 13:56:42;;;;;;;14.00;8.60;;;;;;;;;;4985062;28;20481;-71
2021/01/22 13:59:09;;;;;;;9.07;8.30;;;;;;;;;;4980846;28;20870;-71
2021/01/22 14:01:36;;;;;;;10.30;9.37;;;;;;;;;;4982160;28;20454;-71
2021/01/22 14:04:03;;;;;;;9.77;8.77;;;;;;;;;;4994065;28;20813;-71
2021/01/22 14:06:30;;;;;;;11.03;9.43;;;;;;;;;;4993973;28;20458;-70
2021/01/22 14:08:57;;;;;;;10.60;9.23;;;;;;;;;;4993847;28;20462;-71
2021/01/22 14:11:23;;;;;;;11.40;10.10;;;;;;;;;;4993834;28;20466;-70
2021/01/22 14:13:50;;;;;;;12.33;8.80;;;;;;;;;;4994027;28;20495;-70
2021/01/22 14:16:17;;;;;;;9.83;8.90;;;;;;;;;;5000547;28;20460;-71
2021/01/22 14:18:43;;;;;;;9.53;8.63;;;;;;;;;;5003628;28;20461;-71
2021/01/22 14:21:10;;;;;;;10.57;9.40;;;;;;;;;;4993318;28;20505;-69
2021/01/22 14:23:37;;;;;;;11.03;9.47;;;;;;;;;;4992830;28;20858;-70
2021/01/22 14:26:04;;;;;;;10.30;8.70;;;;;;;;;;4983355;28;20958;-69
2021/01/22 14:28:38;;;;;;;10.57;9.60;;;;;;;;;;4994357;28;20462;-70
2021/01/22 14:31:08;;;;;;;10.40;9.30;;;;;;;;;;4993180;28;20553;-70
2021/01/22 14:36:20;;;;;;;8.97;8.27;;;;;;;;;;4983379;28;20539;-71
2021/01/22 14:39:10;;;;;;;10.40;9.40;;;;;;;;;;4983179;28;20520;-71
2021/01/22 14:41:49;;;;;;;11.00;9.40;;;;;;;;;;4973176;28;20497;-71
2021/01/22 14:44:22;;;;;;;12.23;9.60;;;;;;;;;;4993251;28;20481;-70